createdAt,value
2022-08-11T00:01:08.398Z,3.85
2022-08-11T00:03:42.377Z,3.60
2022-08-11T00:06:14.030Z,3.40
2022-08-11T00:08:43.149Z,3.50
2022-08-11T00:11:12.530Z,3.42
2022-08-11T00:13:45.505Z,3.50
2022-08-11T00:16:24.838Z,3.00
2022-08-11T00:18:53.884Z,3.20
2022-08-11T00:21:59.748Z,3.00
2022-08-11T00:24:10.149Z,3.40
2022-08-11T00:26:36.959Z,3.20
2022-08-11T00:29:10.855Z,3.50
2022-08-11T00:31:38.329Z,3.45
2022-08-11T00:34:11.455Z,2.95
2022-08-11T00:37:11.186Z,2.97
2022-08-11T00:39:48.702Z,3.28
2022-08-11T00:42:43.494Z,3.33
2022-08-11T00:45:42.533Z,3.42
2022-08-11T00:48:19.928Z,3.30
2022-08-11T00:51:09.747Z,3.10
2022-08-11T00:54:00.517Z,3.30
2022-08-11T00:56:59.330Z,3.20
2022-08-11T00:59:56.883Z,3.53
2022-08-11T01:02:48.262Z,3.40
2022-08-11T01:05:36.170Z,3.17
2022-08-11T01:08:30.394Z,3.50
2022-08-11T01:11:32.279Z,3.17
2022-08-11T01:14:17.618Z,3.20
2022-08-11T01:17:32.531Z,3.17
2022-08-11T01:20:46.927Z,3.33
2022-08-11T01:23:36.760Z,3.20
2022-08-11T01:26:40.627Z,3.35
2022-08-11T01:29:10.138Z,3.30
2022-08-11T01:32:15.144Z,3.00
2022-08-11T01:35:01.412Z,3.30
2022-08-11T01:37:58.807Z,3.20
2022-08-11T01:41:02.924Z,3.25
2022-08-11T01:44:04.821Z,3.42
2022-08-11T01:47:02.597Z,3.30
2022-08-11T01:50:07.833Z,3.38
2022-08-11T01:52:41.142Z,3.42
2022-08-11T01:55:18.327Z,3.50
2022-08-11T01:57:56.657Z,3.55
2022-08-11T02:00:29.039Z,3.40
2022-08-11T02:03:19.376Z,3.22
2022-08-11T02:06:32.406Z,3.25
2022-08-11T02:09:23.105Z,2.80
2022-08-11T02:11:55.782Z,2.97
2022-08-11T02:14:39.684Z,3.45
2022-08-11T02:17:15.193Z,3.08
2022-08-11T02:20:06.375Z,3.00
2022-08-11T02:22:51.493Z,3.05
2022-08-11T02:25:21.801Z,3.00
2022-08-11T02:27:57.693Z,3.08
2022-08-11T02:30:35.364Z,2.85
2022-08-11T02:33:27.478Z,3.13
2022-08-11T02:38:35.740Z,3.10
2022-08-11T02:41:58.521Z,3.00
2022-08-11T02:44:32.516Z,2.60
2022-08-11T02:47:09.396Z,2.72
2022-08-11T02:50:06.141Z,2.70
2022-08-11T02:53:02.178Z,2.67
2022-08-11T02:55:57.072Z,3.30
2022-08-11T02:59:15.845Z,2.63
2022-08-11T03:02:10.893Z,2.45
2022-08-11T03:04:55.244Z,2.42
2022-08-11T03:07:29.749Z,2.53
2022-08-11T03:10:11.712Z,2.70
2022-08-11T03:12:59.850Z,2.72
2022-08-11T03:15:56.596Z,2.70
2022-08-11T03:18:28.761Z,2.67
2022-08-11T03:22:03.195Z,2.50
2022-08-11T03:24:26.350Z,2.58
2022-08-11T03:27:13.923Z,3.05
2022-08-11T03:30:15.448Z,2.67
2022-08-11T03:33:18.417Z,2.90
2022-08-11T03:36:23.086Z,2.50
2022-08-11T03:39:06.010Z,2.60
2022-08-11T03:42:02.778Z,2.80
2022-08-11T03:44:50.451Z,2.65
2022-08-11T03:47:41.561Z,2.88
2022-08-11T03:50:39.925Z,2.47
2022-08-11T03:53:34.616Z,2.80
2022-08-11T03:56:13.223Z,3.15
2022-08-11T03:59:17.355Z,2.70
2022-08-11T04:02:05.627Z,2.50
2022-08-11T04:05:09.721Z,2.65
2022-08-11T04:07:58.171Z,2.88
2022-08-11T04:10:33.629Z,2.50
2022-08-11T04:13:00.299Z,2.53
2022-08-11T04:16:20.135Z,2.92
2022-08-11T04:19:11.889Z,2.75
2022-08-11T04:22:15.502Z,2.70
2022-08-11T04:24:57.378Z,3.10
2022-08-11T04:27:47.854Z,2.80
2022-08-11T04:30:28.725Z,3.00
2022-08-11T04:32:59.997Z,2.90
2022-08-11T04:35:54.744Z,2.75
2022-08-11T04:38:58.790Z,2.85
2022-08-11T04:42:18.309Z,3.05
2022-08-11T04:45:03.144Z,2.78
2022-08-11T04:48:10.700Z,2.58
2022-08-11T04:51:36.787Z,2.65
2022-08-11T04:54:55.976Z,3.10
2022-08-11T04:58:06.119Z,3.15
2022-08-11T05:01:09.366Z,3.20
2022-08-11T05:04:28.107Z,3.95
2022-08-11T05:07:10.011Z,3.00
2022-08-11T05:10:00.876Z,3.10
2022-08-11T05:13:21.253Z,3.30
2022-08-11T05:16:20.732Z,2.67
2022-08-11T05:19:19.227Z,2.85
2022-08-11T05:22:11.929Z,3.17
2022-08-11T05:25:06.094Z,2.95
2022-08-11T05:28:08.182Z,3.00
2022-08-11T05:30:57.165Z,2.80
2022-08-11T05:33:52.078Z,2.90
2022-08-11T05:36:30.031Z,3.17
2022-08-11T05:39:19.731Z,2.83
2022-08-11T05:42:30.101Z,2.80
2022-08-11T05:45:22.797Z,3.20
2022-08-11T05:50:53.992Z,3.08
2022-08-11T05:53:46.183Z,3.00
2022-08-11T05:56:20.439Z,2.90
2022-08-11T05:58:50.900Z,3.17
2022-08-11T06:01:26.531Z,2.72
2022-08-11T06:04:14.613Z,2.78
2022-08-11T06:06:52.576Z,2.83
2022-08-11T06:09:47.431Z,2.80
2022-08-11T06:12:32.224Z,2.90
2022-08-11T06:15:05.830Z,3.08
2022-08-11T06:17:38.533Z,2.92
2022-08-11T06:20:12.315Z,2.88
2022-08-11T06:22:42.006Z,3.03
2022-08-11T06:25:12.309Z,3.00
2022-08-11T06:27:42.038Z,2.88
2022-08-11T06:30:19.473Z,2.60
2022-08-11T06:32:51.828Z,2.97
2022-08-11T06:35:31.114Z,2.60
2022-08-11T06:38:10.738Z,3.10
2022-08-11T06:41:07.941Z,3.47
2022-08-11T06:44:04.661Z,3.03
2022-08-11T06:46:38.859Z,2.97
2022-08-11T06:49:07.110Z,2.58
2022-08-11T06:51:37.264Z,4.38
2022-08-11T06:54:12.755Z,2.90
2022-08-11T06:57:28.394Z,2.88
2022-08-11T07:00:07.396Z,3.00
2022-08-11T07:02:43.331Z,2.60
2022-08-11T07:05:45.536Z,3.05
2022-08-11T07:09:19.902Z,3.40
2022-08-11T07:12:11.519Z,3.10
2022-08-11T07:15:01.195Z,3.00
2022-08-11T07:17:29.342Z,2.40
2022-08-11T07:20:18.485Z,2.80
2022-08-11T07:23:13.273Z,2.88
2022-08-11T07:26:01.167Z,5.43
2022-08-11T07:28:48.358Z,3.17
2022-08-11T07:31:21.637Z,2.90
2022-08-11T07:34:06.893Z,2.63
2022-08-11T07:36:40.473Z,2.78
2022-08-11T07:39:15.478Z,2.65
2022-08-11T07:41:44.295Z,2.67
2022-08-11T07:44:12.611Z,3.30
2022-08-11T07:47:01.096Z,3.05
2022-08-11T07:49:50.102Z,3.33
2022-08-11T07:52:26.924Z,2.63
2022-08-11T07:54:55.583Z,2.65
2022-08-11T07:57:42.307Z,2.97
2022-08-11T08:00:44.938Z,2.58
2022-08-11T08:03:37.658Z,3.00
2022-08-11T08:06:39.339Z,2.92
2022-08-11T08:09:26.254Z,2.67
2022-08-11T08:12:11.711Z,2.50
2022-08-11T08:14:57.437Z,2.38
2022-08-11T08:17:43.913Z,3.75
2022-08-11T08:20:13.784Z,2.80
2022-08-11T08:22:45.135Z,3.30
2022-08-11T08:25:15.394Z,2.80
2022-08-11T08:27:43.689Z,2.67
2022-08-11T08:30:29.455Z,2.97
2022-08-11T08:32:57.884Z,3.00
2022-08-11T08:35:27.349Z,2.80
2022-08-11T08:37:59.775Z,2.50
2022-08-11T08:40:26.944Z,2.60
2022-08-11T08:43:07.400Z,3.00
2022-08-11T08:45:39.671Z,2.88
2022-08-11T08:48:16.126Z,2.53
2022-08-11T08:51:12.357Z,2.33
2022-08-11T08:53:52.667Z,2.53
2022-08-11T08:56:28.526Z,2.58
2022-08-11T08:58:58.890Z,2.60
2022-08-11T09:01:28.726Z,2.35
2022-08-11T09:04:05.385Z,2.60
2022-08-11T09:06:40.269Z,2.30
2022-08-11T09:09:12.267Z,2.80
2022-08-11T09:14:20.222Z,3.75
2022-08-11T09:16:48.758Z,3.50
2022-08-11T09:19:17.581Z,2.90
2022-08-11T09:22:08.737Z,2.83
2022-08-11T09:24:57.053Z,2.38
2022-08-11T09:27:25.491Z,2.88
2022-08-11T09:29:53.176Z,2.80
2022-08-11T09:32:21.970Z,3.05
2022-08-11T09:34:52.450Z,3.08
2022-08-11T09:37:54.172Z,2.78
2022-08-11T09:40:30.501Z,2.50
2022-08-11T09:43:22.292Z,2.58
2022-08-11T09:45:51.878Z,2.45
2022-08-11T09:48:20.295Z,2.38
2022-08-11T09:50:51.302Z,2.55
2022-08-11T09:53:35.996Z,2.30
2022-08-11T09:56:26.969Z,2.15
2022-08-11T09:58:53.728Z,2.50
2022-08-11T10:01:29.912Z,2.55
2022-08-11T10:04:01.280Z,2.90
2022-08-11T10:06:48.325Z,2.50
2022-08-11T10:09:25.111Z,2.42
2022-08-11T10:11:58.553Z,2.15
2022-08-11T10:14:53.705Z,2.20
2022-08-11T10:17:22.024Z,2.17
2022-08-11T10:20:05.312Z,1.90
2022-08-11T10:22:51.816Z,2.10
2022-08-11T10:25:37.351Z,2.05
2022-08-11T10:28:30.520Z,2.38
2022-08-11T10:31:40.971Z,2.28
2022-08-11T10:34:20.760Z,2.13
2022-08-11T10:36:49.595Z,2.17
2022-08-11T10:39:20.542Z,2.20
2022-08-11T10:42:12.256Z,1.77
2022-08-11T10:44:47.757Z,2.30
2022-08-11T10:47:34.040Z,2.38
2022-08-11T10:50:27.650Z,2.10
2022-08-11T10:53:17.277Z,2.22
2022-08-11T10:58:51.125Z,2.10
2022-08-11T11:01:22.589Z,1.90
2022-08-11T11:03:58.149Z,2.08
2022-08-11T11:06:51.554Z,2.00
2022-08-11T11:09:38.035Z,1.90
2022-08-11T11:12:32.366Z,2.20
2022-08-11T11:15:21.125Z,2.08
2022-08-11T11:17:56.652Z,1.98
2022-08-11T11:20:36.918Z,2.13
2022-08-11T11:25:37.858Z,2.05
2022-08-11T11:28:10.591Z,1.95
2022-08-11T11:31:03.241Z,2.25
2022-08-11T11:34:06.239Z,2.10
2022-08-11T11:36:52.049Z,1.90
2022-08-11T11:39:25.253Z,2.03
2022-08-11T11:41:55.853Z,2.30
2022-08-11T11:44:23.603Z,2.13
2022-08-11T11:46:52.255Z,1.90
2022-08-11T11:51:50.014Z,2.00
2022-08-11T11:54:19.737Z,1.92
2022-08-11T11:56:46.506Z,2.10
2022-08-11T11:59:33.793Z,2.25
2022-08-11T12:02:01.625Z,1.70
2022-08-11T12:04:42.962Z,2.10
2022-08-11T12:07:29.985Z,2.47
2022-08-11T12:09:58.498Z,2.30
2022-08-11T12:12:44.722Z,2.35
2022-08-11T12:15:12.849Z,2.00
2022-08-11T12:17:40.100Z,2.30
2022-08-11T12:20:31.954Z,2.10
2022-08-11T12:23:15.382Z,2.20
2022-08-11T12:26:26.528Z,2.15
2022-08-11T12:28:50.623Z,2.00
2022-08-11T12:31:17.679Z,2.33
2022-08-11T12:33:44.634Z,1.98
2022-08-11T12:36:15.815Z,2.22
2022-08-11T12:38:51.208Z,2.70
2022-08-11T12:41:39.854Z,2.17
2022-08-11T12:44:28.143Z,1.95
2022-08-11T12:46:57.407Z,2.00
2022-08-11T12:49:45.534Z,1.90
2022-08-11T12:52:22.475Z,2.05
2022-08-11T12:55:03.414Z,2.15
2022-08-11T12:57:55.917Z,1.90
2022-08-11T13:00:42.775Z,2.20
2022-08-11T13:03:30.113Z,1.98
2022-08-11T13:05:59.925Z,2.10
2022-08-11T13:08:29.249Z,2.10
2022-08-11T13:11:19.025Z,2.00
2022-08-11T13:13:55.835Z,2.10
2022-08-11T13:16:28.089Z,2.03
2022-08-11T13:18:57.511Z,2.07
2022-08-11T13:21:24.997Z,1.75
2022-08-11T13:24:01.031Z,1.80
2022-08-11T13:26:47.487Z,2.33
2022-08-11T13:29:21.558Z,2.10
2022-08-11T13:34:16.860Z,1.67
2022-08-11T13:36:44.051Z,1.98
2022-08-11T13:39:11.658Z,1.70
2022-08-11T13:41:42.137Z,1.80
2022-08-11T13:44:12.133Z,2.05
2022-08-11T13:46:40.828Z,1.83
2022-08-11T13:49:15.855Z,1.90
2022-08-11T13:51:43.696Z,1.80
2022-08-11T13:54:22.651Z,2.00
2022-08-11T13:56:54.100Z,2.10
2022-08-11T13:59:30.135Z,1.80
2022-08-11T14:02:21.524Z,2.10
2022-08-11T14:04:58.938Z,2.10
2022-08-11T14:07:32.197Z,2.15
2022-08-11T14:10:00.086Z,1.70
2022-08-11T14:12:50.173Z,1.70
2022-08-11T14:15:29.110Z,1.98
2022-08-11T14:18:20.320Z,2.00
2022-08-11T14:21:11.471Z,2.00
2022-08-11T14:23:41.623Z,1.80
2022-08-11T14:26:29.138Z,2.00
2022-08-11T14:29:02.190Z,1.90
2022-08-11T14:31:32.228Z,2.00
2022-08-11T14:34:02.932Z,1.80
2022-08-11T14:36:36.996Z,2.00
2022-08-11T14:39:08.357Z,1.80
2022-08-11T14:42:11.672Z,1.90
2022-08-11T14:45:01.205Z,1.90
2022-08-11T14:47:30.166Z,1.88
2022-08-11T14:50:11.647Z,1.88
2022-08-11T14:52:44.692Z,1.80
2022-08-11T14:55:31.360Z,2.00
2022-08-11T14:57:59.013Z,2.00
2022-08-11T15:00:26.694Z,2.00
2022-08-11T15:03:14.931Z,2.05
2022-08-11T15:05:56.636Z,1.90
2022-08-11T15:08:46.095Z,2.13
2022-08-11T15:11:34.013Z,2.17
2022-08-11T15:14:05.056Z,2.10
2022-08-11T15:16:50.697Z,2.05
2022-08-11T15:19:21.762Z,1.70
2022-08-11T15:22:08.419Z,1.77
2022-08-11T15:24:37.510Z,1.80
2022-08-11T15:27:38.721Z,2.10
2022-08-11T15:30:33.324Z,1.90
2022-08-11T15:33:29.920Z,2.08
2022-08-11T15:36:16.584Z,1.90
2022-08-11T15:39:20.975Z,2.08
2022-08-11T15:42:20.567Z,2.28
2022-08-11T15:45:17.379Z,2.10
2022-08-11T15:48:05.168Z,1.80
2022-08-11T15:50:38.819Z,1.83
2022-08-11T15:53:25.516Z,1.80
2022-08-11T15:55:53.418Z,1.90
2022-08-11T15:58:39.264Z,1.90
2022-08-11T16:01:26.903Z,2.10
2022-08-11T16:04:12.805Z,2.20
2022-08-11T16:06:54.047Z,1.75
2022-08-11T16:09:28.055Z,1.92
2022-08-11T16:12:04.082Z,2.08
2022-08-11T16:14:57.970Z,1.88
2022-08-11T16:17:27.752Z,2.05
2022-08-11T16:19:56.758Z,1.80
2022-08-11T16:22:41.381Z,2.10
2022-08-11T16:27:04.132Z,1.70
2022-08-11T16:28:14.560Z,2.03
2022-08-11T16:30:43.962Z,2.20
2022-08-11T16:33:48.104Z,2.00
2022-08-11T16:36:17.059Z,2.13
2022-08-11T16:38:44.483Z,1.88
2022-08-11T16:41:37.213Z,2.17
2022-08-11T16:44:37.298Z,1.88
2022-08-11T16:47:12.169Z,1.90
2022-08-11T16:49:52.873Z,1.90
2022-08-11T16:52:21.107Z,1.92
2022-08-11T16:54:48.264Z,1.80
2022-08-11T16:57:43.114Z,1.80
2022-08-11T17:03:22.035Z,2.10
2022-08-11T17:06:11.655Z,2.10
2022-08-11T17:09:10.493Z,1.77
2022-08-11T17:12:02.650Z,1.80
2022-08-11T17:14:37.623Z,2.10
2022-08-11T17:17:14.066Z,2.17
2022-08-11T17:20:42.954Z,1.73
2022-08-11T17:22:58.474Z,1.67
2022-08-11T17:25:28.340Z,1.95
2022-08-11T17:27:56.836Z,1.80
2022-08-11T17:30:45.401Z,1.80
2022-08-11T17:33:31.438Z,1.70
2022-08-11T17:35:59.722Z,2.03
2022-08-11T17:38:27.616Z,1.70
2022-08-11T17:41:23.654Z,1.80
2022-08-11T17:44:12.758Z,1.70
2022-08-11T17:47:05.245Z,1.95
2022-08-11T17:49:37.765Z,1.88
2022-08-11T17:52:25.288Z,1.70
2022-08-11T17:55:14.114Z,1.85
2022-08-11T17:58:02.183Z,1.83
2022-08-11T18:00:31.915Z,1.90
2022-08-11T18:03:18.583Z,1.70
2022-08-11T18:05:47.225Z,1.60
2022-08-11T18:08:35.520Z,1.45
2022-08-11T18:12:11.187Z,2.00
2022-08-11T18:14:30.949Z,1.55
2022-08-11T18:17:16.577Z,1.80
2022-08-11T18:20:01.934Z,1.75
2022-08-11T18:22:53.415Z,1.77
2022-08-11T18:25:56.729Z,1.85
2022-08-11T18:28:51.480Z,1.80
2022-08-11T18:31:39.649Z,1.80
2022-08-11T18:34:29.285Z,2.17
2022-08-11T18:37:28.736Z,2.15
2022-08-11T18:40:24.157Z,1.80
2022-08-11T18:43:11.783Z,1.88
2022-08-11T18:46:06.226Z,2.00
2022-08-11T18:48:55.177Z,1.90
2022-08-11T18:51:42.673Z,1.90
2022-08-11T18:54:30.643Z,1.90
2022-08-11T18:57:20.183Z,2.00
2022-08-11T19:00:07.716Z,2.20
2022-08-11T19:02:57.243Z,1.90
2022-08-11T19:06:32.583Z,2.03
2022-08-11T19:08:56.051Z,2.30
2022-08-11T19:11:43.904Z,2.00
2022-08-11T19:14:31.614Z,2.00
2022-08-11T19:17:43.878Z,2.33
2022-08-11T19:20:32.229Z,2.42
2022-08-11T19:23:18.628Z,2.08
2022-08-11T19:26:06.147Z,2.55
2022-08-11T19:28:55.735Z,2.40
2022-08-11T19:31:44.946Z,2.08
2022-08-11T19:34:35.110Z,2.20
2022-08-11T19:37:25.454Z,2.30
2022-08-11T19:40:24.923Z,2.25
2022-08-11T19:43:23.469Z,2.17
2022-08-11T19:46:15.324Z,2.13
2022-08-11T19:49:02.227Z,1.90
2022-08-11T19:51:54.273Z,2.10
2022-08-11T19:54:44.487Z,2.15
2022-08-11T19:57:34.682Z,1.98
2022-08-11T20:00:30.282Z,2.40
2022-08-11T20:03:17.775Z,2.22
2022-08-11T20:06:06.159Z,2.50
2022-08-11T20:08:57.798Z,2.80
2022-08-11T20:11:45.374Z,2.60
2022-08-11T20:14:31.856Z,2.67
2022-08-11T20:17:18.106Z,3.35
2022-08-11T20:20:03.666Z,3.00
2022-08-11T20:22:50.568Z,2.70
2022-08-11T20:25:37.790Z,2.78
2022-08-11T20:28:24.377Z,2.95
2022-08-11T20:31:11.047Z,2.65
2022-08-11T20:33:58.604Z,2.88
2022-08-11T20:36:47.613Z,2.58
2022-08-11T20:39:41.910Z,2.65
2022-08-11T20:42:30.771Z,2.95
2022-08-11T20:45:23.359Z,3.00
2022-08-11T20:48:15.219Z,3.22
2022-08-11T20:51:07.474Z,2.92
2022-08-11T20:56:47.468Z,2.50
2022-08-11T20:59:38.486Z,3.17
2022-08-11T21:02:40.148Z,2.78
2022-08-11T21:06:09.097Z,3.20
2022-08-11T21:08:31.742Z,2.90
2022-08-11T21:11:28.013Z,2.85
2022-08-11T21:14:14.029Z,2.97
2022-08-11T21:17:27.186Z,3.15
2022-08-11T21:20:18.430Z,3.60
2022-08-11T21:23:19.951Z,3.63
2022-08-11T21:26:17.282Z,3.05
2022-08-11T21:29:04.352Z,3.40
2022-08-11T21:31:51.523Z,3.03
2022-08-11T21:34:38.742Z,2.88
2022-08-11T21:37:26.099Z,3.25
2022-08-11T21:40:17.087Z,3.05
2022-08-11T21:43:05.529Z,2.97
2022-08-11T21:45:54.280Z,2.80
2022-08-11T21:48:41.438Z,3.13
2022-08-11T21:51:26.935Z,3.45
2022-08-11T21:54:13.135Z,3.15
2022-08-11T21:57:00.948Z,2.90
2022-08-11T21:59:56.196Z,2.88
2022-08-11T22:02:53.059Z,2.63
2022-08-11T22:05:39.516Z,2.88
2022-08-11T22:08:25.630Z,2.50
2022-08-11T22:11:11.306Z,2.97
2022-08-11T22:14:00.778Z,2.72
2022-08-11T22:16:52.762Z,2.72
2022-08-11T22:19:39.935Z,3.00
2022-08-11T22:22:26.492Z,2.78
2022-08-11T22:25:16.026Z,2.60
2022-08-11T22:28:01.723Z,2.55
2022-08-11T22:30:47.237Z,2.30
2022-08-11T22:33:33.335Z,2.40
2022-08-11T22:36:19.783Z,2.20
2022-08-11T22:39:10.089Z,2.30
2022-08-11T22:41:55.576Z,2.00
2022-08-11T22:44:41.060Z,2.25
2022-08-11T22:47:40.291Z,2.08
2022-08-11T22:50:29.138Z,2.15
2022-08-11T22:53:16.856Z,2.03
2022-08-11T22:56:03.066Z,2.30
2022-08-11T22:58:48.672Z,1.85
2022-08-11T23:01:37.918Z,2.35
2022-08-11T23:04:41.538Z,2.30
2022-08-11T23:07:50.735Z,2.00
2022-08-11T23:10:33.316Z,2.10
2022-08-11T23:13:22.316Z,2.00
2022-08-11T23:16:08.856Z,2.20
2022-08-11T23:18:54.803Z,2.30
2022-08-11T23:21:40.425Z,2.25
2022-08-11T23:24:26.688Z,2.55
2022-08-11T23:27:12.573Z,1.90
2022-08-11T23:30:00.281Z,2.00
2022-08-11T23:32:49.403Z,1.80
2022-08-11T23:35:40.083Z,2.17
2022-08-11T23:38:36.216Z,2.60
2022-08-11T23:41:22.433Z,2.90
2022-08-11T23:44:08.732Z,2.28
2022-08-11T23:46:54.750Z,2.20
2022-08-11T23:49:40.989Z,2.03
2022-08-11T23:52:26.691Z,2.08
2022-08-11T23:55:12.842Z,1.90
2022-08-11T23:57:58.309Z,1.92
